Time;durP1;ratioP1;P1;durP2;ratioP2;P2;SDS_P1;SDS_P2;PMS_P1;PMS_P2;Temp;Humidity;BMP_temperature;BMP_pressure;BME280_temperature;BME280_humidity;BME280_pressure;Samples;Min_cycle;Max_cycle;Signal;HPM_P1;HPM_P2
2022/05/27 00:01:30;;;;;;;13.65;8.07;;;14.40;99.90;;;;;;5057086;28;20044;-66
2022/05/27 00:03:57;;;;;;;17.20;9.82;;;14.40;99.90;;;;;;5053774;28;20606;-66
2022/05/27 00:06:23;;;;;;;16.80;8.15;;;14.30;99.90;;;;;;5057273;28;20056;-66
2022/05/27 00:08:49;;;;;;;13.85;7.93;;;14.30;99.90;;;;;;5049935;28;20049;-66
2022/05/27 00:11:15;;;;;;;21.25;7.68;;;14.30;99.90;;;;;;5056747;28;20045;-66
2022/05/27 00:13:41;;;;;;;16.73;8.10;;;14.30;99.90;;;;;;5056765;28;21125;-66
2022/05/27 00:16:08;;;;;;;20.42;8.75;;;14.20;99.90;;;;;;5051544;28;20048;-66
2022/05/27 00:18:34;;;;;;;19.00;8.93;;;14.20;99.90;;;;;;5051305;28;20052;-67
2022/05/27 00:21:00;;;;;;;18.65;7.63;;;14.20;99.90;;;;;;5052490;28;20041;-66
2022/05/27 00:23:26;;;;;;;22.23;8.43;;;14.20;99.90;;;;;;5054549;28;20051;-66
2022/05/27 00:25:52;;;;;;;16.23;7.07;;;14.20;99.90;;;;;;5050430;28;20057;-66
2022/05/27 00:28:18;;;;;;;13.82;7.20;;;14.10;99.90;;;;;;5053770;28;20040;-66
2022/05/27 00:30:43;;;;;;;19.55;8.02;;;14.10;99.90;;;;;;5048546;28;20053;-66
2022/05/27 00:33:10;;;;;;;21.58;9.00;;;14.10;99.90;;;;;;5054698;28;20040;-66
2022/05/27 00:35:35;;;;;;;20.17;8.55;;;14.10;99.90;;;;;;5059060;28;20105;-66
2022/05/27 00:38:02;;;;;;;15.88;7.65;;;14.10;99.90;;;;;;5053641;28;20776;-66
2022/05/27 00:40:36;;;;;;;18.58;7.85;;;14.00;99.90;;;;;;5055776;28;20067;-66
2022/05/27 00:43:02;;;;;;;12.13;7.30;;;14.00;99.90;;;;;;5055051;28;20041;-67
2022/05/27 00:45:28;;;;;;;16.23;7.47;;;14.00;99.90;;;;;;5057099;28;20044;-66
2022/05/27 00:47:57;;;;;;;15.75;7.88;;;14.00;99.90;;;;;;5054503;28;20536;-66
2022/05/27 00:50:26;;;;;;;22.92;8.13;;;14.00;99.90;;;;;;5054582;28;20064;-66
2022/05/27 00:52:53;;;;;;;14.40;8.05;;;14.00;99.90;;;;;;5048424;28;20045;-66
2022/05/27 00:55:24;;;;;;;15.88;7.50;;;13.90;99.90;;;;;;5055915;28;20544;-66
2022/05/27 00:58:01;;;;;;;15.27;7.85;;;13.90;99.90;;;;;;5053447;28;20433;-66
2022/05/27 01:00:26;;;;;;;15.30;7.22;;;13.90;99.90;;;;;;5053437;28;20086;-66
2022/05/27 01:02:55;;;;;;;16.10;8.43;;;13.90;99.90;;;;;;5053879;28;20044;-66
2022/05/27 01:05:23;;;;;;;13.88;7.22;;;13.80;99.90;;;;;;5057267;28;20472;-66
2022/05/27 01:07:54;;;;;;;;;;;13.80;99.90;;;;;;5050284;28;20140;-66
2022/05/27 01:10:20;;;;;;;22.52;9.00;;;13.80;99.90;;;;;;5058059;28;19921;-66
2022/05/27 01:13:07;;;;;;;14.43;8.75;;;13.70;99.90;;;;;;5058488;28;20135;-66
2022/05/27 01:16:17;;;;;;;18.10;8.27;;;13.70;99.90;;;;;;5056726;28;20140;-66
2022/05/27 01:22:17;;;;;;;20.20;9.52;;;13.70;99.90;;;;;;5052782;28;20045;-66
2022/05/27 01:24:55;;;;;;;21.33;9.73;;;13.70;99.90;;;;;;5054120;28;20059;-66
2022/05/27 01:27:20;;;;;;;29.30;8.90;;;13.70;99.90;;;;;;5060056;28;20045;-66
2022/05/27 01:30:16;;;;;;;18.45;8.75;;;13.60;99.90;;;;;;5057275;28;20581;-66
2022/05/27 01:33:03;;;;;;;21.38;9.20;;;13.60;99.90;;;;;;5054607;28;20052;-66
2022/05/27 01:35:38;;;;;;;21.93;9.07;;;13.50;99.90;;;;;;5053855;28;20086;-66
2022/05/27 01:38:18;;;;;;;14.82;8.02;;;13.50;99.90;;;;;;5056038;28;20044;-66
2022/05/27 01:40:56;;;;;;;20.33;9.23;;;13.50;99.90;;;;;;5055953;28;20037;-66
2022/05/27 01:43:53;;;;;;;17.35;10.43;;;13.50;99.90;;;;;;5056077;28;20059;-66
2022/05/27 01:46:29;;;;;;;20.63;9.27;;;13.50;99.90;;;;;;5054815;28;20048;-66
2022/05/27 01:49:24;;;;;;;24.20;9.70;;;13.40;99.90;;;;;;5058762;28;20568;-66
2022/05/27 01:52:29;;;;;;;20.92;8.68;;;13.40;99.90;;;;;;5046243;28;20045;-66
2022/05/27 01:55:07;;;;;;;22.33;8.05;;;13.30;99.90;;;;;;5049408;28;20058;-66
2022/05/27 01:57:39;;;;;;;26.40;9.77;;;13.30;99.90;;;;;;5056643;28;20068;-66
2022/05/27 02:00:05;;;;;;;16.42;8.00;;;13.30;99.90;;;;;;5052246;28;20067;-66
2022/05/27 02:02:32;;;;;;;19.48;8.82;;;13.20;99.90;;;;;;5055275;28;20490;-66
2022/05/27 02:05:10;;;;;;;17.33;8.38;;;13.30;99.90;;;;;;5056387;28;20522;-66
2022/05/27 02:07:59;;;;;;;19.65;8.77;;;13.30;99.90;;;;;;5050194;28;20045;-66
2022/05/27 02:10:32;;;;;;;31.95;10.25;;;13.20;99.90;;;;;;5056991;28;20060;-66
2022/05/27 02:13:04;;;;;;;24.65;9.00;;;13.20;99.90;;;;;;5061587;28;20040;-66
2022/05/27 02:15:39;;;;;;;24.17;9.18;;;13.20;99.90;;;;;;5050305;28;20616;-66
2022/05/27 02:18:13;;;;;;;18.25;9.25;;;13.20;99.90;;;;;;5054621;28;20066;-66
2022/05/27 02:20:47;;;;;;;29.80;9.77;;;13.20;99.90;;;;;;5055103;28;20098;-66
2022/05/27 02:23:21;;;;;;;30.23;8.48;;;13.20;99.90;;;;;;5060478;28;20048;-66
2022/05/27 02:25:51;;;;;;;24.77;8.38;;;13.20;99.90;;;;;;5055413;28;20925;-66
2022/05/27 02:28:25;;;;;;;19.17;8.48;;;13.20;99.90;;;;;;5053254;28;20094;-66
2022/05/27 02:30:57;;;;;;;12.68;7.38;;;13.20;99.90;;;;;;5052467;28;20041;-66
2022/05/27 02:36:23;;;;;;;29.60;8.98;;;13.10;99.90;;;;;;5059250;28;20048;-66
2022/05/27 02:38:49;;;;;;;22.73;8.02;;;13.10;99.90;;;;;;5057112;28;20269;-66
2022/05/27 02:41:56;;;;;;;20.60;7.75;;;13.10;99.90;;;;;;5059404;28;20599;-66
2022/05/27 02:45:00;;;;;;;16.02;7.60;;;13.10;99.90;;;;;;5044273;28;20060;-66
2022/05/27 02:47:47;;;;;;;20.77;7.90;;;13.00;99.90;;;;;;5044562;28;20041;-66
2022/05/27 02:50:26;;;;;;;16.55;7.47;;;12.90;99.90;;;;;;5048799;28;21849;-66
2022/05/27 02:53:02;;;;;;;19.35;8.57;;;12.90;99.90;;;;;;5053644;28;20058;-66
2022/05/27 02:55:52;;;;;;;19.70;7.00;;;12.90;99.90;;;;;;5057265;28;20056;-66
2022/05/27 02:58:17;;;;;;;28.10;8.35;;;12.90;99.90;;;;;;5030089;28;20135;-66
2022/05/27 03:00:46;;;;;;;24.13;8.00;;;12.80;99.90;;;;;;5057460;28;20043;-66
2022/05/27 03:03:11;;;;;;;21.17;8.02;;;12.80;99.90;;;;;;5054260;28;20131;-66
2022/05/27 03:05:43;;;;;;;34.20;8.63;;;12.80;99.90;;;;;;5057958;28;20038;-66
2022/05/27 03:08:29;;;;;;;17.10;8.98;;;12.70;99.90;;;;;;5054859;28;20146;-66
2022/05/27 03:11:16;;;;;;;24.63;7.97;;;12.70;99.90;;;;;;5057744;28;20045;-65
2022/05/27 03:13:49;;;;;;;31.35;9.65;;;12.70;99.90;;;;;;5053140;28;20384;-65
2022/05/27 03:16:35;;;;;;;21.23;7.18;;;12.60;99.90;;;;;;5055918;28;20053;-66
2022/05/27 03:19:41;;;;;;;24.83;9.43;;;12.60;99.90;;;;;;5054459;28;20041;-66
2022/05/27 03:22:45;;;;;;;23.45;8.50;;;12.60;99.90;;;;;;5049628;28;20052;-66
2022/05/27 03:25:35;;;;;;;19.23;7.78;;;12.60;99.90;;;;;;5053627;28;20041;-66
2022/05/27 03:28:17;;;;;;;19.17;6.97;;;12.60;99.90;;;;;;5059611;28;20041;-66
2022/05/27 03:30:48;;;;;;;22.92;8.48;;;12.60;99.90;;;;;;5058408;28;20037;-66
2022/05/27 03:33:28;;;;;;;20.33;7.57;;;12.60;99.90;;;;;;5052743;28;20408;-66
2022/05/27 03:35:56;;;;;;;27.42;7.88;;;12.60;99.90;;;;;;5054284;28;20396;-65
2022/05/27 03:38:34;;;;;;;26.98;8.68;;;12.60;99.90;;;;;;5049814;28;20595;-66
2022/05/27 03:41:31;;;;;;;26.48;7.70;;;12.50;99.90;;;;;;5057709;28;20115;-66
2022/05/27 03:43:57;;;;;;;24.08;8.50;;;12.50;99.90;;;;;;5051101;28;20044;-66
2022/05/27 03:46:40;;;;;;;23.60;9.32;;;12.50;99.90;;;;;;5055781;28;20044;-66
2022/05/27 03:49:06;;;;;;;28.00;8.80;;;12.40;99.90;;;;;;5056108;28;20457;-66
2022/05/27 03:51:47;;;;;;;24.23;7.57;;;12.50;99.90;;;;;;5052129;28;20085;-66
2022/05/27 03:54:14;;;;;;;26.92;8.30;;;12.40;99.90;;;;;;5052293;28;20131;-66
2022/05/27 03:56:42;;;;;;;17.23;7.83;;;12.40;99.90;;;;;;5052906;28;20553;-66
2022/05/27 03:59:12;;;;;;;17.55;7.45;;;12.50;99.90;;;;;;5053774;28;20763;-66
2022/05/27 04:01:41;;;;;;;17.17;7.57;;;12.50;99.90;;;;;;5056105;28;20053;-66
2022/05/27 04:04:11;;;;;;;27.95;8.68;;;12.50;99.90;;;;;;5049528;28;20063;-66
2022/05/27 04:06:37;;;;;;;25.55;9.20;;;12.50;99.90;;;;;;5049534;28;20037;-66
2022/05/27 04:09:04;;;;;;;19.83;7.75;;;12.50;99.90;;;;;;5056330;28;20036;-66
2022/05/27 04:11:30;;;;;;;27.60;8.05;;;12.50;99.90;;;;;;5056930;28;21747;-66
2022/05/27 04:13:56;;;;;;;19.08;8.10;;;12.60;99.90;;;;;;5055534;28;20090;-66
2022/05/27 04:16:23;;;;;;;17.05;6.35;;;12.70;99.90;;;;;;5053978;28;20045;-66
2022/05/27 04:18:49;;;;;;;19.83;7.53;;;12.70;99.90;;;;;;5053844;28;20079;-67
2022/05/27 04:21:16;;;;;;;23.77;8.45;;;12.70;99.90;;;;;;5049222;28;20064;-66
2022/05/27 04:23:41;;;;;;;14.93;5.93;;;12.70;99.90;;;;;;5050135;28;20040;-66
2022/05/27 04:26:07;;;;;;;19.48;5.93;;;12.70;99.90;;;;;;5050890;28;20040;-66
2022/05/27 04:28:33;;;;;;;18.42;6.25;;;12.60;99.90;;;;;;5053145;28;20037;-66
2022/05/27 04:30:59;;;;;;;20.70;6.72;;;12.60;99.90;;;;;;5055537;28;20105;-66
2022/05/27 04:33:27;;;;;;;16.30;6.60;;;12.60;99.90;;;;;;5055316;28;20052;-66
2022/05/27 04:35:54;;;;;;;20.58;6.93;;;12.60;99.90;;;;;;5058565;28;20041;-66
2022/05/27 04:38:21;;;;;;;15.90;6.80;;;12.60;99.90;;;;;;5057924;28;20040;-65
2022/05/27 04:40:47;;;;;;;23.25;7.70;;;12.60;99.90;;;;;;5060167;28;20047;-67
2022/05/27 04:43:14;;;;;;;12.00;6.07;;;12.60;99.90;;;;;;5060014;28;20528;-67
2022/05/27 04:45:41;;;;;;;17.52;6.75;;;12.60;99.90;;;;;;5057842;28;20032;-66
2022/05/27 04:48:07;;;;;;;25.83;6.57;;;12.60;99.90;;;;;;5056965;28;20041;-67
2022/05/27 04:50:33;;;;;;;30.33;7.57;;;12.60;99.90;;;;;;5051581;28;20087;-67
2022/05/27 04:53:00;;;;;;;24.52;8.65;;;12.70;99.90;;;;;;5053389;28;20069;-67
2022/05/27 04:55:26;;;;;;;26.55;6.70;;;12.60;99.90;;;;;;5050626;28;20048;-67
2022/05/27 04:57:54;;;;;;;22.52;8.15;;;12.60;99.90;;;;;;5060470;28;20076;-67
2022/05/27 05:00:22;;;;;;;;;;;12.70;99.90;;;;;;5060073;28;20060;-66
2022/05/27 05:02:47;;;;;;;31.08;8.35;;;12.70;99.90;;;;;;5058285;28;20003;-66
2022/05/27 05:05:16;;;;;;;28.63;9.60;;;12.70;99.90;;;;;;5058855;28;20863;-66
2022/05/27 05:07:44;;;;;;;26.48;9.05;;;12.70;99.90;;;;;;5064490;28;20086;-67
2022/05/27 05:10:13;;;;;;;31.55;7.70;;;12.70;99.90;;;;;;5054169;28;20123;-66
2022/05/27 05:12:38;;;;;;;37.95;8.18;;;12.80;99.90;;;;;;5058920;28;20047;-66
2022/05/27 05:15:05;;;;;;;18.95;6.57;;;12.70;99.90;;;;;;5055624;28;20397;-66
2022/05/27 05:17:30;;;;;;;25.90;7.28;;;12.80;99.90;;;;;;5060257;28;20049;-66
2022/05/27 05:19:56;;;;;;;19.17;6.90;;;12.80;99.90;;;;;;5053773;28;20041;-67
2022/05/27 05:22:23;;;;;;;26.83;8.95;;;12.80;99.90;;;;;;5053176;28;20622;-67
2022/05/27 05:24:53;;;;;;;20.58;6.72;;;12.80;99.90;;;;;;5052852;28;20040;-66
2022/05/27 05:27:20;;;;;;;22.02;8.50;;;12.80;99.90;;;;;;5055771;28;20075;-67
2022/05/27 05:29:45;;;;;;;20.52;6.75;;;12.80;99.90;;;;;;5054472;28;20072;-66
2022/05/27 05:32:11;;;;;;;16.27;6.85;;;12.80;99.90;;;;;;5053145;28;20135;-66
2022/05/27 05:34:37;;;;;;;22.45;6.57;;;12.80;99.90;;;;;;5051432;28;20033;-66
2022/05/27 05:37:02;;;;;;;23.33;6.47;;;12.80;99.90;;;;;;5060692;28;20052;-66
2022/05/27 05:39:28;;;;;;;22.00;6.50;;;12.90;99.90;;;;;;5055071;28;20398;-66
2022/05/27 05:42:02;;;;;;;25.00;6.63;;;12.90;99.90;;;;;;5054903;28;20048;-66
2022/05/27 05:44:30;;;;;;;24.38;6.57;;;12.90;99.90;;;;;;5052328;28;20049;-66
2022/05/27 05:46:56;;;;;;;22.52;6.88;;;13.00;99.90;;;;;;5055334;28;20072;-66
2022/05/27 05:49:22;;;;;;;20.80;6.38;;;13.00;99.90;;;;;;5048636;28;20044;-66
2022/05/27 05:51:48;;;;;;;35.50;6.80;;;13.10;99.90;;;;;;5048504;28;20056;-66
2022/05/27 05:54:14;;;;;;;15.93;5.93;;;13.20;99.90;;;;;;5053747;28;20044;-66
2022/05/27 05:56:40;;;;;;;21.17;6.00;;;13.20;99.90;;;;;;5054776;28;20049;-66
2022/05/27 05:59:05;;;;;;;21.85;6.85;;;13.20;99.90;;;;;;5061058;28;20428;-65
2022/05/27 06:01:31;;;;;;;19.70;6.30;;;13.20;99.90;;;;;;5054361;28;20044;-66
2022/05/27 06:03:57;;;;;;;23.85;7.25;;;13.20;99.90;;;;;;5059943;28;20051;-65
2022/05/27 06:06:23;;;;;;;23.73;6.20;;;13.20;99.90;;;;;;5051187;28;20500;-66
2022/05/27 06:08:49;;;;;;;15.25;4.57;;;13.20;99.90;;;;;;5052888;28;20037;-65
2022/05/27 06:11:15;;;;;;;16.30;5.80;;;13.10;99.90;;;;;;5048529;28;20098;-65
2022/05/27 06:13:41;;;;;;;17.98;5.85;;;13.20;99.90;;;;;;5052589;28;20053;-65
2022/05/27 06:16:08;;;;;;;29.00;6.68;;;13.20;99.90;;;;;;5052220;28;20041;-65
2022/05/27 06:18:34;;;;;;;18.27;6.38;;;13.20;99.90;;;;;;5050954;28;20037;-65
2022/05/27 06:21:00;;;;;;;38.45;7.90;;;13.30;99.90;;;;;;5049981;28;20095;-65
2022/05/27 06:23:29;;;;;;;18.85;5.80;;;13.40;99.90;;;;;;5053940;28;20037;-64
2022/05/27 06:26:08;;;;;;;14.25;5.75;;;13.40;99.90;;;;;;5049435;28;20049;-65
2022/05/27 06:36:48;;;;;;;27.48;6.35;;;13.70;99.90;;;;;;5047402;28;20044;-64
2022/05/27 06:39:14;;;;;;;18.67;5.50;;;13.90;99.90;;;;;;5052643;28;20087;-65
2022/05/27 06:41:41;;;;;;;21.23;6.82;;;14.00;99.90;;;;;;5052552;28;20420;-65
2022/05/27 06:44:07;;;;;;;20.63;5.63;;;14.20;99.90;;;;;;5053778;28;20516;-65
2022/05/27 06:46:33;;;;;;;19.05;5.70;;;14.40;99.90;;;;;;5051162;28;20098;-64
2022/05/27 06:48:59;;;;;;;27.63;6.20;;;14.50;99.90;;;;;;5052210;28;20082;-64
2022/05/27 06:51:25;;;;;;;14.18;5.82;;;14.70;99.90;;;;;;5047041;28;20061;-65
2022/05/27 06:53:51;;;;;;;14.93;5.53;;;14.90;99.90;;;;;;5054435;28;20079;-65
2022/05/27 06:56:18;;;;;;;17.02;5.97;;;14.90;99.90;;;;;;5051975;28;21615;-65
2022/05/27 06:58:44;;;;;;;18.98;6.20;;;15.00;99.90;;;;;;5053450;28;20035;-66
2022/05/27 07:01:10;;;;;;;17.38;6.05;;;14.90;99.90;;;;;;5044699;28;20083;-65
2022/05/27 07:03:37;;;;;;;18.27;6.65;;;15.00;99.90;;;;;;5053846;28;20120;-65
2022/05/27 07:06:08;;;;;;;18.67;5.68;;;15.00;99.90;;;;;;5054464;28;20050;-66
2022/05/27 07:08:34;;;;;;;21.08;6.00;;;15.10;99.90;;;;;;5053178;28;20056;-65
2022/05/27 07:11:01;;;;;;;17.70;5.13;;;15.00;99.90;;;;;;5050297;28;20116;-65
2022/05/27 07:13:27;;;;;;;23.97;6.00;;;15.00;99.90;;;;;;5053812;28;20041;-65
2022/05/27 07:15:53;;;;;;;23.90;5.43;;;15.10;99.90;;;;;;5053211;28;20791;-65
2022/05/27 07:18:19;;;;;;;19.02;5.85;;;15.40;99.90;;;;;;5051288;28;20048;-66
2022/05/27 07:20:45;;;;;;;20.13;5.93;;;15.50;99.90;;;;;;5051061;28;20045;-64
2022/05/27 07:23:11;;;;;;;18.80;6.15;;;15.30;99.90;;;;;;5051563;28;20052;-65
2022/05/27 07:25:37;;;;;;;15.00;5.28;;;15.50;99.90;;;;;;5053753;28;20746;-65
2022/05/27 07:28:07;;;;;;;16.13;5.90;;;15.80;99.90;;;;;;5054743;28;20037;-65
2022/05/27 07:30:36;;;;;;;16.65;5.20;;;15.90;99.90;;;;;;5056389;28;20037;-65
2022/05/27 07:33:02;;;;;;;29.02;6.28;;;16.10;99.90;;;;;;5050728;28;20051;-65
2022/05/27 07:35:28;;;;;;;20.30;6.45;;;16.10;99.90;;;;;;5055534;28;20043;-65
2022/05/27 07:37:53;;;;;;;16.98;4.32;;;16.20;99.90;;;;;;5054639;28;20041;-65
2022/05/27 07:40:20;;;;;;;22.45;5.43;;;16.10;99.90;;;;;;5057146;28;20033;-66
2022/05/27 07:42:46;;;;;;;20.92;6.57;;;16.00;99.90;;;;;;5067244;28;20052;-65
2022/05/27 07:45:13;;;;;;;34.38;6.70;;;15.90;99.90;;;;;;5047267;28;20084;-67
2022/05/27 07:47:39;;;;;;;20.95;5.28;;;15.70;99.90;;;;;;5050765;28;20128;-66
2022/05/27 07:50:07;;;;;;;24.05;4.53;;;15.70;99.90;;;;;;5049678;28;20056;-66
2022/05/27 07:52:34;;;;;;;15.25;4.68;;;15.50;99.90;;;;;;5050749;28;20547;-66
2022/05/27 07:55:01;;;;;;;23.60;5.57;;;15.30;99.90;;;;;;5047038;28;20387;-66
2022/05/27 07:57:28;;;;;;;19.73;6.75;;;15.20;99.90;;;;;;5055649;28;20097;-66
2022/05/27 07:59:54;;;;;;;17.58;5.28;;;15.30;99.90;;;;;;5055078;28;20115;-66
2022/05/27 08:02:23;;;;;;;17.92;5.93;;;15.70;99.90;;;;;;5059282;28;20462;-66
2022/05/27 08:04:49;;;;;;;15.52;5.85;;;15.90;99.90;;;;;;5055276;28;20036;-66
2022/05/27 08:07:15;;;;;;;21.42;5.40;;;16.30;99.90;;;;;;5060852;28;20045;-66
2022/05/27 08:09:41;;;;;;;16.10;5.03;;;16.60;99.90;;;;;;5060047;28;20476;-67
2022/05/27 08:12:07;;;;;;;16.98;5.50;;;16.90;99.90;;;;;;5057827;28;20063;-66
2022/05/27 08:14:33;;;;;;;30.52;6.53;;;17.10;99.90;;;;;;5057928;28;20402;-66
2022/05/27 08:17:00;;;;;;;14.43;5.32;;;17.40;99.90;;;;;;5067606;28;20036;-66
2022/05/27 08:19:25;;;;;;;17.35;5.63;;;17.40;98.20;;;;;;5071178;28;20808;-67
2022/05/27 08:21:51;;;;;;;27.38;7.68;;;17.40;99.90;;;;;;5065274;28;20066;-67
2022/05/27 08:24:17;;;;;;;13.77;4.80;;;17.50;99.90;;;;;;5068418;28;20986;-67
2022/05/27 08:26:43;;;;;;;14.40;4.95;;;17.70;97.50;;;;;;5071143;28;20967;-65
2022/05/27 08:29:09;;;;;;;24.20;5.82;;;17.60;99.00;;;;;;5068079;28;20081;-66
2022/05/27 08:31:36;;;;;;;19.20;4.95;;;17.40;99.90;;;;;;5073966;28;20239;-66
2022/05/27 08:39:37;;;;;;;20.83;5.50;;;17.10;95.90;;;;;;5072346;28;20048;-67
2022/05/27 08:42:40;;;;;;;22.15;5.53;;;17.20;96.60;;;;;;5075255;28;20040;-67
2022/05/27 08:45:19;;;;;;;22.67;4.78;;;17.20;90.20;;;;;;5063114;28;20048;-67
2022/05/27 08:47:57;;;;;;;10.88;5.15;;;17.00;90.80;;;;;;5072927;28;20086;-67
2022/05/27 08:50:57;;;;;;;36.30;6.03;;;16.70;81.90;;;;;;5074241;28;20052;-67
2022/05/27 08:53:28;;;;;;;20.73;5.72;;;16.90;96.90;;;;;;5023594;28;20036;-66
2022/05/27 09:01:36;;;;;;;14.25;4.80;;;17.00;96.00;;;;;;5076923;28;20074;-68
2022/05/27 09:04:18;;;;;;;15.10;4.70;;;17.20;93.30;;;;;;5075625;28;20932;-66
2022/05/27 09:06:49;;;;;;;15.68;5.13;;;17.50;94.80;;;;;;5077202;28;20039;-67
2022/05/27 09:09:27;;;;;;;19.40;5.82;;;17.60;94.70;;;;;;5075205;28;20417;-67
2022/05/27 09:12:15;;;;;;;21.25;4.38;;;17.60;88.10;;;;;;5070097;28;20382;-67
2022/05/27 09:14:50;;;;;;;21.45;6.47;;;17.70;75.10;;;;;;5067320;28;20139;-67
2022/05/27 09:17:38;;;;;;;15.70;4.47;;;17.70;81.30;;;;;;5060626;28;20070;-67
2022/05/27 09:20:45;;;;;;;18.70;5.90;;;17.90;82.50;;;;;;5079328;28;20431;-66
2022/05/27 09:24:00;;;;;;;23.80;5.90;;;18.20;90.10;;;;;;5070053;28;20080;-66
2022/05/27 09:26:40;;;;;;;14.48;4.38;;;18.30;77.80;;;;;;5065238;28;20064;-66
2022/05/27 09:29:27;;;;;;;21.92;6.55;;;18.20;75.90;;;;;;5072164;28;20975;-66
2022/05/27 09:32:07;;;;;;;24.60;6.15;;;18.30;77.80;;;;;;5073332;28;20052;-66
2022/05/27 09:34:36;;;;;;;13.98;4.82;;;18.20;86.00;;;;;;5076066;28;20130;-66
2022/05/27 09:37:06;;;;;;;18.15;5.30;;;18.20;85.80;;;;;;5075565;28;20063;-66
2022/05/27 09:39:32;;;;;;;10.85;4.13;;;18.30;84.30;;;;;;5074823;28;20055;-66
2022/05/27 09:42:05;;;;;;;13.00;4.22;;;18.40;86.40;;;;;;5076189;28;20069;-66
2022/05/27 09:44:41;;;;;;;20.15;5.78;;;18.40;80.00;;;;;;5073171;28;20041;-66
2022/05/27 09:47:07;;;;;;;19.50;4.35;;;18.30;77.30;;;;;;5077000;28;20049;-66
2022/05/27 09:49:34;;;;;;;15.70;4.32;;;18.00;81.60;;;;;;5075279;28;20046;-66
2022/05/27 09:52:01;;;;;;;13.48;4.05;;;18.10;86.90;;;;;;5076246;28;20044;-66
2022/05/27 09:54:43;;;;;;;15.60;4.00;;;18.20;87.70;;;;;;5073815;28;20090;-66
2022/05/27 09:57:16;;;;;;;19.27;5.32;;;17.90;82.10;;;;;;5070895;28;20099;-66
2022/05/27 09:59:56;;;;;;;27.90;5.22;;;17.70;79.50;;;;;;5070063;28;20045;-66
2022/05/27 10:02:32;;;;;;;18.48;4.95;;;17.90;82.50;;;;;;5076084;28;20048;-66
2022/05/27 10:04:59;;;;;;;16.40;4.82;;;17.80;74.80;;;;;;5072382;28;20249;-67
2022/05/27 10:07:31;;;;;;;10.98;3.05;;;17.70;82.50;;;;;;5075167;28;20065;-66
2022/05/27 10:10:14;;;;;;;9.90;4.10;;;17.80;83.80;;;;;;5074428;28;20119;-67
2022/05/27 10:12:40;;;;;;;12.95;4.20;;;18.10;80.20;;;;;;5074481;28;20619;-67
2022/05/27 10:15:06;;;;;;;22.98;4.20;;;18.30;79.40;;;;;;5073667;28;20040;-66
2022/05/27 10:17:36;;;;;;;8.57;3.63;;;18.20;74.80;;;;;;5058441;28;20505;-66
2022/05/27 10:20:27;;;;;;;12.55;3.38;;;18.10;75.40;;;;;;5068255;28;20085;-67
2022/05/27 10:23:05;;;;;;;11.50;4.07;;;18.30;68.70;;;;;;5073024;28;20050;-67
2022/05/27 10:25:35;;;;;;;19.05;5.68;;;18.20;71.70;;;;;;5077021;28;20059;-67
2022/05/27 10:28:02;;;;;;;13.93;4.30;;;18.10;74.20;;;;;;5075011;28;20047;-67
2022/05/27 10:30:39;;;;;;;12.00;4.68;;;18.00;73.50;;;;;;5072148;28;20046;-66
2022/05/27 10:33:21;;;;;;;17.13;3.43;;;17.90;74.70;;;;;;5060327;28;20479;-65
2022/05/27 10:35:48;;;;;;;21.85;5.60;;;17.90;71.80;;;;;;5056832;28;20044;-65
2022/05/27 10:38:42;;;;;;;31.27;5.05;;;18.00;73.40;;;;;;5058652;28;20517;-66
2022/05/27 10:41:32;;;;;;;21.70;5.05;;;18.00;69.80;;;;;;5061535;28;20394;-66
2022/05/27 10:44:21;;;;;;;17.42;5.53;;;17.90;69.40;;;;;;5058522;28;20056;-65
2022/05/27 10:47:18;;;;;;;14.07;4.57;;;18.00;71.80;;;;;;5060082;28;20055;-66
2022/05/27 10:50:04;;;;;;;16.17;4.55;;;18.30;69.60;;;;;;5071082;28;20439;-67
2022/05/27 10:52:51;;;;;;;17.98;4.03;;;18.10;68.60;;;;;;5072012;28;20591;-67
2022/05/27 10:55:57;;;;;;;28.80;5.40;;;18.10;66.60;;;;;;5065344;28;20119;-67
2022/05/27 11:02:04;;;;;;;25.85;5.10;;;17.80;73.00;;;;;;5072697;28;20062;-66
2022/05/27 11:04:56;;;;;;;10.20;3.78;;;18.10;70.00;;;;;;5069478;28;20050;-66
2022/05/27 11:07:57;;;;;;;15.07;4.30;;;18.10;69.00;;;;;;5069350;28;20040;-66
2022/05/27 11:10:22;;;;;;;14.25;4.82;;;18.40;68.10;;;;;;5069512;28;20064;-66
2022/05/27 11:16:11;;;;;;;17.33;4.38;;;18.60;64.90;;;;;;5072663;28;20058;-66
2022/05/27 11:19:13;;;;;;;12.43;4.75;;;18.80;68.80;;;;;;5073277;28;20117;-66
2022/05/27 11:22:00;;;;;;;14.05;3.58;;;18.60;65.40;;;;;;5073138;28;20515;-66
2022/05/27 11:25:00;;;;;;;18.10;4.68;;;18.60;68.60;;;;;;5069510;28;20044;-67
2022/05/27 11:27:37;;;;;;;20.45;4.38;;;18.60;68.60;;;;;;5065957;28;20379;-66
2022/05/27 11:30:06;;;;;;;17.48;4.25;;;18.80;69.20;;;;;;5059208;28;20048;-66
2022/05/27 11:33:04;;;;;;;14.90;3.03;;;18.90;66.30;;;;;;5070484;28;20040;-66
2022/05/27 11:36:00;;;;;;;13.40;4.00;;;18.80;64.10;;;;;;5072362;28;20059;-64
2022/05/27 11:38:48;;;;;;;12.00;4.13;;;18.80;64.30;;;;;;5073960;28;20105;-65
2022/05/27 11:41:28;;;;;;;24.60;5.47;;;19.00;66.60;;;;;;5074230;28;20764;-66
2022/05/27 11:44:16;;;;;;;20.42;6.32;;;18.70;64.50;;;;;;5068291;28;20173;-66
2022/05/27 11:46:57;;;;;;;25.45;5.50;;;18.90;66.90;;;;;;5063078;28;20071;-66
2022/05/27 11:49:43;;;;;;;13.20;4.40;;;18.90;69.30;;;;;;5068617;28;20471;-66
2022/05/27 11:52:23;;;;;;;;;;;18.70;67.10;;;;;;5065857;28;20052;-67
2022/05/27 11:55:01;;;;;;;22.15;5.35;;;18.30;65.20;;;;;;5061974;28;19924;-65
2022/05/27 11:57:50;;;;;;;16.05;4.13;;;18.30;68.10;;;;;;5061072;28;20621;-65
2022/05/27 12:00:19;;;;;;;16.15;4.90;;;18.50;68.90;;;;;;5060811;28;20124;-65
2022/05/27 12:02:51;;;;;;;17.27;4.32;;;18.40;68.10;;;;;;5062079;28;20048;-66
2022/05/27 12:05:33;;;;;;;15.60;4.20;;;18.30;67.00;;;;;;5062611;28;20114;-65
2022/05/27 12:08:17;;;;;;;16.70;4.30;;;18.40;69.00;;;;;;5072178;28;20174;-66
2022/05/27 12:10:51;;;;;;;14.55;4.20;;;18.20;69.40;;;;;;5067124;28;20082;-66
2022/05/27 12:13:16;;;;;;;19.30;4.68;;;18.00;65.90;;;;;;5074823;28;20062;-65
2022/05/27 12:15:52;;;;;;;14.23;4.90;;;17.80;68.30;;;;;;5067645;28;20041;-65
2022/05/27 12:18:26;;;;;;;29.00;6.03;;;17.70;68.80;;;;;;5068178;28;20044;-66
2022/05/27 12:20:52;;;;;;;18.00;5.18;;;17.70;72.20;;;;;;5071977;28;20511;-65
2022/05/27 12:23:23;;;;;;;14.45;4.50;;;17.90;76.30;;;;;;5072348;28;20115;-66
2022/05/27 12:25:53;;;;;;;31.00;5.03;;;17.80;70.80;;;;;;5072238;28;20125;-65
2022/05/27 12:28:24;;;;;;;15.35;4.45;;;17.50;68.80;;;;;;5072391;28;20051;-66
2022/05/27 12:30:51;;;;;;;19.13;5.00;;;17.50;70.80;;;;;;5073797;28;20164;-66
2022/05/27 12:33:20;;;;;;;17.20;4.88;;;17.40;71.60;;;;;;5072586;28;20094;-65
2022/05/27 12:36:13;;;;;;;17.27;5.50;;;17.30;71.70;;;;;;5074467;28;20044;-66
2022/05/27 12:38:46;;;;;;;25.98;6.25;;;17.40;76.40;;;;;;5073073;28;20067;-66
2022/05/27 12:41:17;;;;;;;15.52;4.60;;;17.70;75.90;;;;;;5071051;28;20044;-65
2022/05/27 12:44:22;;;;;;;24.80;5.82;;;17.80;73.90;;;;;;5071482;28;20554;-66
2022/05/27 12:46:59;;;;;;;29.50;5.63;;;18.10;73.40;;;;;;4991589;28;20129;-65
2022/05/27 12:49:43;;;;;;;28.77;6.18;;;18.10;71.00;;;;;;5058125;28;20150;-65
2022/05/27 12:52:28;;;;;;;19.63;4.47;;;18.00;68.40;;;;;;5060834;28;20053;-66
2022/05/27 12:54:54;;;;;;;30.92;5.15;;;18.00;67.90;;;;;;5052567;28;20071;-65
2022/05/27 13:01:03;;;;;;;25.67;5.78;;;17.80;69.30;;;;;;5054095;28;20052;-66
2022/05/27 13:03:38;;;;;;;24.20;6.18;;;17.60;72.30;;;;;;5049846;28;20064;-65
2022/05/27 13:06:12;;;;;;;33.50;5.70;;;17.80;76.30;;;;;;5050750;28;20040;-65
2022/05/27 13:08:46;;;;;;;22.42;5.80;;;17.90;70.60;;;;;;5054263;28;20052;-65
2022/05/27 13:11:37;;;;;;;21.20;5.25;;;18.10;73.50;;;;;;5059889;28;20551;-65
2022/05/27 13:14:05;;;;;;;27.35;6.32;;;18.20;72.70;;;;;;5040821;28;20060;-65
2022/05/27 13:16:46;;;;;;;15.32;4.65;;;18.20;73.50;;;;;;5049567;28;20525;-65
2022/05/27 13:19:44;;;;;;;24.30;5.30;;;18.20;71.70;;;;;;5059288;28;20119;-66
2022/05/27 13:22:54;;;;;;;17.85;4.43;;;18.00;67.90;;;;;;5050841;28;20469;-65
2022/05/27 13:25:33;;;;;;;24.60;6.82;;;17.90;71.90;;;;;;5059811;28;20178;-65
2022/05/27 13:28:05;;;;;;;15.80;4.95;;;17.80;73.00;;;;;;5058354;28;20493;-65
2022/05/27 13:30:49;;;;;;;14.13;4.55;;;17.80;72.70;;;;;;5056756;28;20163;-65
2022/05/27 13:33:19;;;;;;;23.20;5.30;;;17.70;72.20;;;;;;5054621;28;20513;-65
2022/05/27 13:35:48;;;;;;;17.02;4.80;;;17.60;71.60;;;;;;5059262;28;20151;-64
2022/05/27 13:38:23;;;;;;;18.35;4.88;;;17.60;72.40;;;;;;5058116;28;20395;-65
2022/05/27 13:40:49;;;;;;;30.55;6.72;;;17.60;72.40;;;;;;5056449;28;20441;-64
2022/05/27 13:43:23;;;;;;;20.80;5.25;;;17.70;74.80;;;;;;5055363;28;20045;-65
2022/05/27 13:46:22;;;;;;;28.00;5.45;;;17.50;73.30;;;;;;5060575;28;20071;-65
2022/05/27 13:49:07;;;;;;;21.73;5.88;;;17.60;76.40;;;;;;5052068;28;20583;-65